KHTO

Details ICAO KHTO
Name East Hampton
Region United States
Timezone America/New_York (UTC-5.0)
Plans Departing 11
Arriving 22
Stats Elevation 56 ft / 17 m (AMSL)
Location 40.959739° -72.251595°
Runways 3
Magnetic Variation 13.791° W
Sunrise 2017-12-15 12:08:14 UTC / 2017-12-15 07:08:14 Local
Sunset 2017-12-15 21:23:03 UTC / 2017-12-15 16:23:03 Local
Advertisement - Login to hide

Runways

ID Width Length Bearing (true) Bearing (mag) Surface Threshold Offset Overrun Length
04 98 ft / 30 m 2,502 ft / 763 m 28.61° 42.40° Asphalt 0 ft / 0 m 0 ft / 0 m
10 98 ft / 30 m 4,245 ft / 1,294 m 88.91° 102.70° Asphalt 0 ft / 0 m 0 ft / 0 m
16 75 ft / 23 m 2,225 ft / 678 m 149.19° 162.98° Asphalt 56 ft / 17 m 0 ft / 0 m
22 98 ft / 30 m 2,502 ft / 763 m 208.61° 222.40° Asphalt 381 ft / 116 m 0 ft / 0 m
28 98 ft / 30 m 4,245 ft / 1,294 m 268.92° 282.71° Asphalt 0 ft / 0 m 0 ft / 0 m
34 75 ft / 23 m 2,225 ft / 678 m 329.20° 342.99° Asphalt 105 ft / 32 m 0 ft / 0 m

Map

Weather


0- 5 10 15 20 25 30 35+ Temperature / ° C

Clouds and Precipitation
Forecast for 2017-12-16 00:00 UTC. Updated 37 minutes ago

Ground ~20,000 ft ~40,000 ft Winds

METAR

KHTO 152135Z AUTO 02003KT 2 1/2SM -SN OVC025 M03/M04 A2988 RMK AO2 T10281040

TAF

Not found

Frequencies

Unicom 122.70 MHz CTAF/UNICOM
Approach 132.25 MHz NEW YORK APP/DEP
Clearance 118.95 MHz NEW YORK CLNC DEL
Warning: Do not use this data for real-world aviation or navigation. No guarantee of current accuracy is given.